sensor_id;sensor_type;location;lat;lon;timestamp;P1;durP1;ratioP1;P2;durP2;ratioP2
19543;SDS011;9917;51.256;7.152;2023-04-16T00:01:18;23.52;;;12.65;;
19543;SDS011;9917;51.256;7.152;2023-04-16T00:03:44;24.57;;;13.30;;
19543;SDS011;9917;51.256;7.152;2023-04-16T00:06:10;21.43;;;12.93;;
19543;SDS011;9917;51.256;7.152;2023-04-16T00:08:40;22.37;;;13.17;;
19543;SDS011;9917;51.256;7.152;2023-04-16T00:11:05;25.27;;;13.77;;
19543;SDS011;9917;51.256;7.152;2023-04-16T00:13:32;27.97;;;13.40;;
19543;SDS011;9917;51.256;7.152;2023-04-16T00:15:57;21.57;;;12.70;;
19543;SDS011;9917;51.256;7.152;2023-04-16T00:18:23;25.80;;;11.57;;
19543;SDS011;9917;51.256;7.152;2023-04-16T00:20:49;22.80;;;12.83;;
19543;SDS011;9917;51.256;7.152;2023-04-16T00:23:15;20.65;;;12.05;;
19543;SDS011;9917;51.256;7.152;2023-04-16T00:25:42;21.73;;;11.90;;
19543;SDS011;9917;51.256;7.152;2023-04-16T00:28:08;21.63;;;12.50;;
19543;SDS011;9917;51.256;7.152;2023-04-16T00:30:34;20.93;;;12.10;;
19543;SDS011;9917;51.256;7.152;2023-04-16T00:33:00;22.03;;;12.30;;
19543;SDS011;9917;51.256;7.152;2023-04-16T00:35:26;20.85;;;12.40;;
19543;SDS011;9917;51.256;7.152;2023-04-16T00:37:52;23.73;;;11.85;;
19543;SDS011;9917;51.256;7.152;2023-04-16T00:40:17;25.03;;;12.07;;
19543;SDS011;9917;51.256;7.152;2023-04-16T00:42:45;19.47;;;10.97;;
19543;SDS011;9917;51.256;7.152;2023-04-16T00:45:11;23.77;;;11.57;;
19543;SDS011;9917;51.256;7.152;2023-04-16T00:47:39;23.17;;;11.37;;
19543;SDS011;9917;51.256;7.152;2023-04-16T00:50:06;20.77;;;11.20;;
19543;SDS011;9917;51.256;7.152;2023-04-16T00:52:32;20.23;;;11.37;;
19543;SDS011;9917;51.256;7.152;2023-04-16T00:54:59;22.23;;;11.87;;
19543;SDS011;9917;51.256;7.152;2023-04-16T00:57:25;25.03;;;13.00;;
19543;SDS011;9917;51.256;7.152;2023-04-16T00:59:52;24.07;;;13.93;;
19543;SDS011;9917;51.256;7.152;2023-04-16T01:02:18;25.08;;;14.23;;
19543;SDS011;9917;51.256;7.152;2023-04-16T01:04:44;21.90;;;14.13;;
19543;SDS011;9917;51.256;7.152;2023-04-16T01:07:10;24.93;;;15.13;;
19543;SDS011;9917;51.256;7.152;2023-04-16T01:09:36;23.37;;;13.90;;
19543;SDS011;9917;51.256;7.152;2023-04-16T01:12:02;25.67;;;14.80;;
19543;SDS011;9917;51.256;7.152;2023-04-16T01:14:28;24.98;;;13.95;;
19543;SDS011;9917;51.256;7.152;2023-04-16T01:16:55;25.50;;;14.03;;
19543;SDS011;9917;51.256;7.152;2023-04-16T01:19:21;24.17;;;13.93;;
19543;SDS011;9917;51.256;7.152;2023-04-16T01:21:48;28.83;;;14.70;;
19543;SDS011;9917;51.256;7.152;2023-04-16T01:24:14;23.45;;;13.93;;
19543;SDS011;9917;51.256;7.152;2023-04-16T01:26:39;24.13;;;13.50;;
19543;SDS011;9917;51.256;7.152;2023-04-16T01:29:05;24.65;;;13.75;;
19543;SDS011;9917;51.256;7.152;2023-04-16T01:31:31;27.07;;;15.27;;
19543;SDS011;9917;51.256;7.152;2023-04-16T01:33:57;25.93;;;14.80;;
19543;SDS011;9917;51.256;7.152;2023-04-16T01:36:23;25.67;;;14.50;;
19543;SDS011;9917;51.256;7.152;2023-04-16T01:38:50;26.40;;;15.30;;
19543;SDS011;9917;51.256;7.152;2023-04-16T01:41:16;27.03;;;15.33;;
19543;SDS011;9917;51.256;7.152;2023-04-16T01:43:41;28.57;;;16.30;;
19543;SDS011;9917;51.256;7.152;2023-04-16T01:46:11;29.08;;;16.75;;
19543;SDS011;9917;51.256;7.152;2023-04-16T01:48:38;34.90;;;18.13;;
19543;SDS011;9917;51.256;7.152;2023-04-16T01:51:04;36.70;;;19.97;;
19543;SDS011;9917;51.256;7.152;2023-04-16T01:53:30;34.70;;;19.87;;
19543;SDS011;9917;51.256;7.152;2023-04-16T01:55:57;32.95;;;19.05;;
19543;SDS011;9917;51.256;7.152;2023-04-16T01:58:23;32.90;;;19.00;;
19543;SDS011;9917;51.256;7.152;2023-04-16T02:00:49;28.75;;;17.27;;
19543;SDS011;9917;51.256;7.152;2023-04-16T02:03:14;32.80;;;18.77;;
19543;SDS011;9917;51.256;7.152;2023-04-16T02:05:40;29.90;;;18.13;;
19543;SDS011;9917;51.256;7.152;2023-04-16T02:08:06;36.17;;;18.93;;
19543;SDS011;9917;51.256;7.152;2023-04-16T02:10:32;28.45;;;17.77;;
19543;SDS011;9917;51.256;7.152;2023-04-16T02:12:59;36.38;;;19.27;;
19543;SDS011;9917;51.256;7.152;2023-04-16T02:15:24;32.27;;;19.17;;
19543;SDS011;9917;51.256;7.152;2023-04-16T02:17:50;32.33;;;19.07;;
19543;SDS011;9917;51.256;7.152;2023-04-16T02:20:16;36.60;;;17.73;;
19543;SDS011;9917;51.256;7.152;2023-04-16T02:22:42;30.93;;;17.97;;
19543;SDS011;9917;51.256;7.152;2023-04-16T02:25:08;28.30;;;16.43;;
19543;SDS011;9917;51.256;7.152;2023-04-16T02:27:34;32.80;;;17.13;;
19543;SDS011;9917;51.256;7.152;2023-04-16T02:30:01;31.30;;;16.73;;
19543;SDS011;9917;51.256;7.152;2023-04-16T02:32:27;26.83;;;15.90;;
19543;SDS011;9917;51.256;7.152;2023-04-16T02:34:52;26.20;;;14.50;;
19543;SDS011;9917;51.256;7.152;2023-04-16T02:37:18;23.40;;;13.82;;
19543;SDS011;9917;51.256;7.152;2023-04-16T02:39:44;28.73;;;14.13;;
19543;SDS011;9917;51.256;7.152;2023-04-16T02:42:09;25.17;;;13.27;;
19543;SDS011;9917;51.256;7.152;2023-04-16T02:44:35;25.73;;;14.50;;
19543;SDS011;9917;51.256;7.152;2023-04-16T02:47:02;25.03;;;14.37;;
19543;SDS011;9917;51.256;7.152;2023-04-16T02:49:28;25.13;;;14.20;;
19543;SDS011;9917;51.256;7.152;2023-04-16T02:51:53;28.07;;;14.13;;
19543;SDS011;9917;51.256;7.152;2023-04-16T02:54:19;25.43;;;14.83;;
19543;SDS011;9917;51.256;7.152;2023-04-16T02:56:45;26.42;;;14.75;;
19543;SDS011;9917;51.256;7.152;2023-04-16T02:59:10;26.77;;;15.50;;
19543;SDS011;9917;51.256;7.152;2023-04-16T03:01:36;28.30;;;15.03;;
19543;SDS011;9917;51.256;7.152;2023-04-16T03:04:04;29.97;;;15.70;;
19543;SDS011;9917;51.256;7.152;2023-04-16T03:06:30;32.13;;;16.77;;
19543;SDS011;9917;51.256;7.152;2023-04-16T03:08:56;28.30;;;16.83;;
19543;SDS011;9917;51.256;7.152;2023-04-16T03:11:22;30.63;;;17.23;;
19543;SDS011;9917;51.256;7.152;2023-04-16T03:13:48;33.83;;;18.30;;
19543;SDS011;9917;51.256;7.152;2023-04-16T03:16:14;38.20;;;18.60;;
19543;SDS011;9917;51.256;7.152;2023-04-16T03:18:40;32.97;;;19.37;;
19543;SDS011;9917;51.256;7.152;2023-04-16T03:21:07;35.78;;;19.52;;
19543;SDS011;9917;51.256;7.152;2023-04-16T03:23:32;33.97;;;20.10;;
19543;SDS011;9917;51.256;7.152;2023-04-16T03:25:58;35.92;;;20.30;;
19543;SDS011;9917;51.256;7.152;2023-04-16T03:28:24;33.30;;;20.48;;
19543;SDS011;9917;51.256;7.152;2023-04-16T03:30:50;35.60;;;20.87;;
19543;SDS011;9917;51.256;7.152;2023-04-16T03:33:16;40.30;;;22.00;;
19543;SDS011;9917;51.256;7.152;2023-04-16T03:35:42;43.15;;;23.48;;
19543;SDS011;9917;51.256;7.152;2023-04-16T03:38:09;41.57;;;23.47;;
19543;SDS011;9917;51.256;7.152;2023-04-16T03:40:35;46.00;;;23.40;;
19543;SDS011;9917;51.256;7.152;2023-04-16T03:43:01;42.53;;;22.87;;
19543;SDS011;9917;51.256;7.152;2023-04-16T03:45:27;42.70;;;23.27;;
19543;SDS011;9917;51.256;7.152;2023-04-16T03:47:52;39.50;;;23.92;;
19543;SDS011;9917;51.256;7.152;2023-04-16T03:50:18;42.53;;;23.63;;
19543;SDS011;9917;51.256;7.152;2023-04-16T03:52:44;42.50;;;23.95;;
19543;SDS011;9917;51.256;7.152;2023-04-16T03:55:11;40.30;;;23.73;;
19543;SDS011;9917;51.256;7.152;2023-04-16T03:57:37;43.33;;;23.10;;
19543;SDS011;9917;51.256;7.152;2023-04-16T04:00:03;44.60;;;23.98;;
19543;SDS011;9917;51.256;7.152;2023-04-16T04:02:30;41.90;;;24.07;;
19543;SDS011;9917;51.256;7.152;2023-04-16T04:04:55;41.00;;;22.67;;
19543;SDS011;9917;51.256;7.152;2023-04-16T04:07:21;43.77;;;25.13;;
19543;SDS011;9917;51.256;7.152;2023-04-16T04:09:47;40.43;;;23.80;;
19543;SDS011;9917;51.256;7.152;2023-04-16T04:12:14;40.57;;;23.03;;
19543;SDS011;9917;51.256;7.152;2023-04-16T04:14:40;39.30;;;22.30;;
19543;SDS011;9917;51.256;7.152;2023-04-16T04:17:06;42.72;;;23.15;;
19543;SDS011;9917;51.256;7.152;2023-04-16T04:19:32;47.72;;;24.70;;
19543;SDS011;9917;51.256;7.152;2023-04-16T04:21:58;44.53;;;23.73;;
19543;SDS011;9917;51.256;7.152;2023-04-16T04:24:24;44.35;;;24.42;;
19543;SDS011;9917;51.256;7.152;2023-04-16T04:26:50;43.63;;;24.10;;
19543;SDS011;9917;51.256;7.152;2023-04-16T04:29:17;46.17;;;25.03;;
19543;SDS011;9917;51.256;7.152;2023-04-16T04:31:43;42.13;;;23.60;;
19543;SDS011;9917;51.256;7.152;2023-04-16T04:34:08;45.53;;;24.80;;
19543;SDS011;9917;51.256;7.152;2023-04-16T04:36:34;41.33;;;23.27;;
19543;SDS011;9917;51.256;7.152;2023-04-16T04:39:00;44.67;;;23.85;;
19543;SDS011;9917;51.256;7.152;2023-04-16T04:41:25;57.38;;;31.33;;
19543;SDS011;9917;51.256;7.152;2023-04-16T04:43:51;57.63;;;30.87;;
19543;SDS011;9917;51.256;7.152;2023-04-16T04:46:18;59.38;;;33.10;;
19543;SDS011;9917;51.256;7.152;2023-04-16T04:48:44;66.97;;;37.47;;
19543;SDS011;9917;51.256;7.152;2023-04-16T04:51:10;79.20;;;39.87;;
19543;SDS011;9917;51.256;7.152;2023-04-16T04:53:36;61.17;;;32.97;;
19543;SDS011;9917;51.256;7.152;2023-04-16T04:56:01;53.60;;;27.85;;
19543;SDS011;9917;51.256;7.152;2023-04-16T04:58:27;53.22;;;28.50;;
19543;SDS011;9917;51.256;7.152;2023-04-16T05:00:53;73.20;;;38.53;;
19543;SDS011;9917;51.256;7.152;2023-04-16T05:03:20;67.57;;;36.03;;
19543;SDS011;9917;51.256;7.152;2023-04-16T05:05:46;52.00;;;28.90;;
19543;SDS011;9917;51.256;7.152;2023-04-16T05:08:12;62.23;;;31.53;;
19543;SDS011;9917;51.256;7.152;2023-04-16T05:10:38;65.73;;;34.63;;
19543;SDS011;9917;51.256;7.152;2023-04-16T05:13:04;55.10;;;28.95;;
19543;SDS011;9917;51.256;7.152;2023-04-16T05:15:30;60.22;;;29.77;;
19543;SDS011;9917;51.256;7.152;2023-04-16T05:17:56;55.20;;;28.50;;
19543;SDS011;9917;51.256;7.152;2023-04-16T05:20:23;50.83;;;26.63;;
19543;SDS011;9917;51.256;7.152;2023-04-16T05:22:48;52.07;;;27.63;;
19543;SDS011;9917;51.256;7.152;2023-04-16T05:25:14;52.70;;;29.97;;
19543;SDS011;9917;51.256;7.152;2023-04-16T05:27:40;60.57;;;32.07;;
19543;SDS011;9917;51.256;7.152;2023-04-16T05:30:06;54.63;;;28.03;;
19543;SDS011;9917;51.256;7.152;2023-04-16T05:32:33;56.70;;;28.77;;
19543;SDS011;9917;51.256;7.152;2023-04-16T05:34:58;53.43;;;29.10;;
19543;SDS011;9917;51.256;7.152;2023-04-16T05:37:30;53.42;;;26.98;;
19543;SDS011;9917;51.256;7.152;2023-04-16T05:39:57;52.47;;;28.52;;
19543;SDS011;9917;51.256;7.152;2023-04-16T05:42:23;47.10;;;25.27;;
19543;SDS011;9917;51.256;7.152;2023-04-16T05:44:49;58.20;;;28.38;;
19543;SDS011;9917;51.256;7.152;2023-04-16T05:47:15;48.70;;;26.13;;
19543;SDS011;9917;51.256;7.152;2023-04-16T05:49:41;45.78;;;22.95;;
19543;SDS011;9917;51.256;7.152;2023-04-16T05:52:07;44.88;;;24.65;;
19543;SDS011;9917;51.256;7.152;2023-04-16T05:54:34;42.43;;;22.40;;
19543;SDS011;9917;51.256;7.152;2023-04-16T05:57:00;45.85;;;24.98;;
19543;SDS011;9917;51.256;7.152;2023-04-16T05:59:26;46.30;;;25.50;;
19543;SDS011;9917;51.256;7.152;2023-04-16T06:01:52;43.15;;;22.98;;
19543;SDS011;9917;51.256;7.152;2023-04-16T06:04:17;42.10;;;22.20;;
19543;SDS011;9917;51.256;7.152;2023-04-16T06:06:43;44.77;;;22.30;;
19543;SDS011;9917;51.256;7.152;2023-04-16T06:09:09;43.08;;;21.70;;
19543;SDS011;9917;51.256;7.152;2023-04-16T06:11:37;45.43;;;21.50;;
19543;SDS011;9917;51.256;7.152;2023-04-16T06:14:02;43.38;;;22.33;;
19543;SDS011;9917;51.256;7.152;2023-04-16T06:16:28;39.87;;;21.47;;
19543;SDS011;9917;51.256;7.152;2023-04-16T06:18:54;40.10;;;21.20;;
19543;SDS011;9917;51.256;7.152;2023-04-16T06:21:20;45.10;;;21.30;;
19543;SDS011;9917;51.256;7.152;2023-04-16T06:23:46;41.08;;;22.58;;
19543;SDS011;9917;51.256;7.152;2023-04-16T06:26:12;43.73;;;22.90;;
19543;SDS011;9917;51.256;7.152;2023-04-16T06:28:39;41.80;;;22.77;;
19543;SDS011;9917;51.256;7.152;2023-04-16T06:31:04;43.10;;;23.50;;
19543;SDS011;9917;51.256;7.152;2023-04-16T06:33:30;44.17;;;22.85;;
19543;SDS011;9917;51.256;7.152;2023-04-16T06:35:56;49.07;;;24.50;;
19543;SDS011;9917;51.256;7.152;2023-04-16T06:38:22;40.45;;;23.08;;
19543;SDS011;9917;51.256;7.152;2023-04-16T06:40:47;44.60;;;22.77;;
19543;SDS011;9917;51.256;7.152;2023-04-16T06:43:13;47.20;;;23.67;;
19543;SDS011;9917;51.256;7.152;2023-04-16T06:45:40;43.70;;;23.60;;
19543;SDS011;9917;51.256;7.152;2023-04-16T06:48:06;44.35;;;24.20;;
19543;SDS011;9917;51.256;7.152;2023-04-16T06:50:32;40.00;;;22.17;;
19543;SDS011;9917;51.256;7.152;2023-04-16T06:52:58;42.70;;;22.87;;
19543;SDS011;9917;51.256;7.152;2023-04-16T06:55:23;41.92;;;22.92;;
19543;SDS011;9917;51.256;7.152;2023-04-16T06:57:49;42.67;;;22.13;;
19543;SDS011;9917;51.256;7.152;2023-04-16T07:00:15;39.20;;;21.52;;
19543;SDS011;9917;51.256;7.152;2023-04-16T07:02:42;37.27;;;21.73;;
19543;SDS011;9917;51.256;7.152;2023-04-16T07:05:08;43.67;;;21.73;;
19543;SDS011;9917;51.256;7.152;2023-04-16T07:07:34;43.83;;;23.77;;
19543;SDS011;9917;51.256;7.152;2023-04-16T07:09:59;42.47;;;22.08;;
19543;SDS011;9917;51.256;7.152;2023-04-16T07:12:25;48.05;;;22.42;;
19543;SDS011;9917;51.256;7.152;2023-04-16T07:14:51;42.17;;;23.23;;
19543;SDS011;9917;51.256;7.152;2023-04-16T07:17:17;39.80;;;23.00;;
19543;SDS011;9917;51.256;7.152;2023-04-16T07:19:45;38.47;;;21.60;;
19543;SDS011;9917;51.256;7.152;2023-04-16T07:22:10;36.70;;;21.67;;
19543;SDS011;9917;51.256;7.152;2023-04-16T07:24:36;38.20;;;22.45;;
19543;SDS011;9917;51.256;7.152;2023-04-16T07:27:02;48.00;;;25.50;;
19543;SDS011;9917;51.256;7.152;2023-04-16T07:29:28;48.63;;;24.90;;
19543;SDS011;9917;51.256;7.152;2023-04-16T07:31:54;47.50;;;23.80;;
19543;SDS011;9917;51.256;7.152;2023-04-16T07:34:19;41.05;;;23.85;;
19543;SDS011;9917;51.256;7.152;2023-04-16T07:36:47;41.10;;;23.73;;
19543;SDS011;9917;51.256;7.152;2023-04-16T07:39:13;50.13;;;26.33;;
19543;SDS011;9917;51.256;7.152;2023-04-16T07:41:38;45.00;;;24.70;;
19543;SDS011;9917;51.256;7.152;2023-04-16T07:44:04;44.22;;;24.02;;
19543;SDS011;9917;51.256;7.152;2023-04-16T07:46:30;47.60;;;24.65;;
19543;SDS011;9917;51.256;7.152;2023-04-16T07:48:56;45.25;;;24.65;;
19543;SDS011;9917;51.256;7.152;2023-04-16T07:51:22;43.37;;;24.27;;
19543;SDS011;9917;51.256;7.152;2023-04-16T07:53:49;46.17;;;25.70;;
19543;SDS011;9917;51.256;7.152;2023-04-16T07:56:15;47.00;;;24.75;;
19543;SDS011;9917;51.256;7.152;2023-04-16T07:58:41;41.25;;;23.77;;
19543;SDS011;9917;51.256;7.152;2023-04-16T08:01:07;43.13;;;24.88;;
19543;SDS011;9917;51.256;7.152;2023-04-16T08:03:32;43.88;;;25.20;;
19543;SDS011;9917;51.256;7.152;2023-04-16T08:05:58;44.78;;;24.17;;
19543;SDS011;9917;51.256;7.152;2023-04-16T08:08:25;40.33;;;23.55;;
19543;SDS011;9917;51.256;7.152;2023-04-16T08:10:52;40.65;;;23.50;;
19543;SDS011;9917;51.256;7.152;2023-04-16T08:13:18;41.47;;;21.80;;
19543;SDS011;9917;51.256;7.152;2023-04-16T08:15:44;44.83;;;23.15;;
19543;SDS011;9917;51.256;7.152;2023-04-16T08:18:10;40.80;;;22.42;;
19543;SDS011;9917;51.256;7.152;2023-04-16T08:20:36;39.92;;;23.13;;
19543;SDS011;9917;51.256;7.152;2023-04-16T08:23:02;32.33;;;19.70;;
19543;SDS011;9917;51.256;7.152;2023-04-16T08:25:28;35.03;;;20.77;;
19543;SDS011;9917;51.256;7.152;2023-04-16T08:27:55;38.03;;;21.42;;
19543;SDS011;9917;51.256;7.152;2023-04-16T08:30:21;34.00;;;20.73;;
19543;SDS011;9917;51.256;7.152;2023-04-16T08:32:56;37.85;;;20.10;;
19543;SDS011;9917;51.256;7.152;2023-04-16T08:35:24;36.17;;;20.17;;
19543;SDS011;9917;51.256;7.152;2023-04-16T08:37:50;34.63;;;20.33;;
19543;SDS011;9917;51.256;7.152;2023-04-16T08:40:16;39.85;;;21.90;;
19543;SDS011;9917;51.256;7.152;2023-04-16T08:42:49;37.13;;;19.95;;
19543;SDS011;9917;51.256;7.152;2023-04-16T08:45:19;33.20;;;21.70;;
19543;SDS011;9917;51.256;7.152;2023-04-16T08:47:45;35.58;;;20.67;;
19543;SDS011;9917;51.256;7.152;2023-04-16T08:50:13;34.67;;;20.77;;
19543;SDS011;9917;51.256;7.152;2023-04-16T08:52:49;34.55;;;20.15;;
19543;SDS011;9917;51.256;7.152;2023-04-16T08:55:15;31.27;;;19.27;;
19543;SDS011;9917;51.256;7.152;2023-04-16T08:57:43;33.50;;;20.02;;
19543;SDS011;9917;51.256;7.152;2023-04-16T09:00:12;35.50;;;20.92;;
19543;SDS011;9917;51.256;7.152;2023-04-16T09:02:41;32.65;;;19.50;;
19543;SDS011;9917;51.256;7.152;2023-04-16T09:05:07;30.45;;;19.63;;
19543;SDS011;9917;51.256;7.152;2023-04-16T09:07:34;35.25;;;19.85;;
19543;SDS011;9917;51.256;7.152;2023-04-16T09:10:01;33.40;;;20.05;;
19543;SDS011;9917;51.256;7.152;2023-04-16T09:12:28;34.50;;;19.92;;
19543;SDS011;9917;51.256;7.152;2023-04-16T09:14:54;33.30;;;19.85;;
19543;SDS011;9917;51.256;7.152;2023-04-16T09:17:21;33.22;;;20.02;;
19543;SDS011;9917;51.256;7.152;2023-04-16T09:19:48;29.65;;;18.77;;
19543;SDS011;9917;51.256;7.152;2023-04-16T09:22:14;30.90;;;18.98;;
19543;SDS011;9917;51.256;7.152;2023-04-16T09:24:40;29.15;;;19.10;;
19543;SDS011;9917;51.256;7.152;2023-04-16T09:27:06;30.10;;;18.63;;
19543;SDS011;9917;51.256;7.152;2023-04-16T09:29:34;28.67;;;17.63;;
19543;SDS011;9917;51.256;7.152;2023-04-16T09:32:01;30.95;;;17.70;;
19543;SDS011;9917;51.256;7.152;2023-04-16T09:34:27;28.63;;;16.67;;
19543;SDS011;9917;51.256;7.152;2023-04-16T09:36:54;31.02;;;18.85;;
19543;SDS011;9917;51.256;7.152;2023-04-16T09:39:21;26.30;;;17.58;;
19543;SDS011;9917;51.256;7.152;2023-04-16T09:41:47;26.35;;;16.20;;
19543;SDS011;9917;51.256;7.152;2023-04-16T09:44:13;27.85;;;17.60;;
19543;SDS011;9917;51.256;7.152;2023-04-16T09:46:39;27.50;;;17.20;;
19543;SDS011;9917;51.256;7.152;2023-04-16T09:49:07;23.83;;;16.02;;
19543;SDS011;9917;51.256;7.152;2023-04-16T09:51:35;26.75;;;16.05;;
19543;SDS011;9917;51.256;7.152;2023-04-16T09:54:04;25.75;;;16.23;;
19543;SDS011;9917;51.256;7.152;2023-04-16T09:56:30;24.27;;;16.48;;
19543;SDS011;9917;51.256;7.152;2023-04-16T09:58:56;22.92;;;15.50;;
19543;SDS011;9917;51.256;7.152;2023-04-16T10:01:24;24.88;;;14.93;;
19543;SDS011;9917;51.256;7.152;2023-04-16T10:03:52;28.10;;;15.98;;
19543;SDS011;9917;51.256;7.152;2023-04-16T10:06:19;30.02;;;18.17;;
19543;SDS011;9917;51.256;7.152;2023-04-16T10:08:46;26.77;;;16.48;;
19543;SDS011;9917;51.256;7.152;2023-04-16T10:11:13;25.15;;;16.42;;
19543;SDS011;9917;51.256;7.152;2023-04-16T10:13:39;25.75;;;16.13;;
19543;SDS011;9917;51.256;7.152;2023-04-16T10:16:06;25.40;;;16.30;;
19543;SDS011;9917;51.256;7.152;2023-04-16T10:18:32;26.40;;;15.93;;
19543;SDS011;9917;51.256;7.152;2023-04-16T10:21:00;25.23;;;16.05;;
19543;SDS011;9917;51.256;7.152;2023-04-16T10:23:26;25.13;;;16.27;;
19543;SDS011;9917;51.256;7.152;2023-04-16T10:25:52;23.58;;;15.82;;
19543;SDS011;9917;51.256;7.152;2023-04-16T10:28:20;27.00;;;16.27;;
19543;SDS011;9917;51.256;7.152;2023-04-16T10:30:48;23.08;;;15.20;;
19543;SDS011;9917;51.256;7.152;2023-04-16T10:33:15;23.95;;;15.13;;
19543;SDS011;9917;51.256;7.152;2023-04-16T10:35:41;22.75;;;14.98;;
19543;SDS011;9917;51.256;7.152;2023-04-16T10:41:01;21.60;;;14.32;;
19543;SDS011;9917;51.256;7.152;2023-04-16T10:43:29;22.77;;;14.68;;
19543;SDS011;9917;51.256;7.152;2023-04-16T10:45:55;21.27;;;14.63;;
19543;SDS011;9917;51.256;7.152;2023-04-16T10:48:22;20.67;;;13.75;;
19543;SDS011;9917;51.256;7.152;2023-04-16T10:50:55;20.92;;;14.65;;
19543;SDS011;9917;51.256;7.152;2023-04-16T10:53:22;21.52;;;14.30;;
19543;SDS011;9917;51.256;7.152;2023-04-16T10:55:55;21.67;;;14.50;;
19543;SDS011;9917;51.256;7.152;2023-04-16T10:58:29;20.83;;;12.50;;
19543;SDS011;9917;51.256;7.152;2023-04-16T11:00:57;17.70;;;12.25;;
19543;SDS011;9917;51.256;7.152;2023-04-16T11:03:23;19.58;;;12.60;;
19543;SDS011;9917;51.256;7.152;2023-04-16T11:05:49;18.67;;;12.15;;
19543;SDS011;9917;51.256;7.152;2023-04-16T11:08:15;17.42;;;12.00;;
19543;SDS011;9917;51.256;7.152;2023-04-16T11:10:40;18.50;;;12.32;;
19543;SDS011;9917;51.256;7.152;2023-04-16T11:13:06;20.50;;;13.23;;
19543;SDS011;9917;51.256;7.152;2023-04-16T11:15:33;17.42;;;11.82;;
19543;SDS011;9917;51.256;7.152;2023-04-16T11:17:59;21.42;;;14.25;;
19543;SDS011;9917;51.256;7.152;2023-04-16T11:20:25;21.58;;;13.55;;
19543;SDS011;9917;51.256;7.152;2023-04-16T11:22:52;24.70;;;14.43;;
19543;SDS011;9917;51.256;7.152;2023-04-16T11:25:19;20.08;;;13.70;;
19543;SDS011;9917;51.256;7.152;2023-04-16T11:27:45;20.50;;;14.27;;
19543;SDS011;9917;51.256;7.152;2023-04-16T11:30:11;21.88;;;13.93;;
19543;SDS011;9917;51.256;7.152;2023-04-16T11:32:38;18.90;;;13.25;;
19543;SDS011;9917;51.256;7.152;2023-04-16T11:35:12;20.23;;;12.65;;
19543;SDS011;9917;51.256;7.152;2023-04-16T11:37:40;19.73;;;13.52;;
19543;SDS011;9917;51.256;7.152;2023-04-16T11:40:07;20.70;;;13.25;;
19543;SDS011;9917;51.256;7.152;2023-04-16T11:42:33;20.17;;;12.95;;
19543;SDS011;9917;51.256;7.152;2023-04-16T11:44:59;17.77;;;12.38;;
19543;SDS011;9917;51.256;7.152;2023-04-16T11:47:25;16.45;;;11.63;;
19543;SDS011;9917;51.256;7.152;2023-04-16T11:49:52;17.13;;;11.88;;
19543;SDS011;9917;51.256;7.152;2023-04-16T11:52:24;16.10;;;10.25;;
19543;SDS011;9917;51.256;7.152;2023-04-16T11:54:51;15.23;;;10.50;;
19543;SDS011;9917;51.256;7.152;2023-04-16T11:57:22;16.02;;;10.80;;
19543;SDS011;9917;51.256;7.152;2023-04-16T11:59:48;15.15;;;9.88;;
19543;SDS011;9917;51.256;7.152;2023-04-16T12:02:14;16.25;;;10.73;;
19543;SDS011;9917;51.256;7.152;2023-04-16T12:04:40;15.30;;;10.00;;
19543;SDS011;9917;51.256;7.152;2023-04-16T12:07:09;15.50;;;10.30;;
19543;SDS011;9917;51.256;7.152;2023-04-16T12:09:36;15.05;;;10.38;;
19543;SDS011;9917;51.256;7.152;2023-04-16T12:12:04;14.80;;;9.85;;
19543;SDS011;9917;51.256;7.152;2023-04-16T12:14:30;15.32;;;10.65;;
19543;SDS011;9917;51.256;7.152;2023-04-16T12:19:46;16.20;;;10.43;;
19543;SDS011;9917;51.256;7.152;2023-04-16T12:22:14;15.52;;;10.77;;
19543;SDS011;9917;51.256;7.152;2023-04-16T12:24:40;15.38;;;10.85;;
19543;SDS011;9917;51.256;7.152;2023-04-16T12:27:05;15.20;;;10.48;;
19543;SDS011;9917;51.256;7.152;2023-04-16T12:29:31;16.90;;;10.93;;
19543;SDS011;9917;51.256;7.152;2023-04-16T12:31:57;15.88;;;10.80;;
19543;SDS011;9917;51.256;7.152;2023-04-16T12:34:23;15.90;;;10.90;;
19543;SDS011;9917;51.256;7.152;2023-04-16T12:36:49;16.42;;;10.80;;
19543;SDS011;9917;51.256;7.152;2023-04-16T12:39:32;16.90;;;11.20;;
19543;SDS011;9917;51.256;7.152;2023-04-16T12:41:57;17.92;;;11.90;;
19543;SDS011;9917;51.256;7.152;2023-04-16T12:44:23;16.58;;;11.27;;
19543;SDS011;9917;51.256;7.152;2023-04-16T12:46:50;16.20;;;11.60;;
19543;SDS011;9917;51.256;7.152;2023-04-16T12:49:16;16.45;;;11.55;;
19543;SDS011;9917;51.256;7.152;2023-04-16T12:51:42;18.27;;;12.30;;
19543;SDS011;9917;51.256;7.152;2023-04-16T12:54:08;18.15;;;12.18;;
19543;SDS011;9917;51.256;7.152;2023-04-16T12:56:35;19.60;;;12.60;;
19543;SDS011;9917;51.256;7.152;2023-04-16T12:59:01;17.88;;;12.27;;
19543;SDS011;9917;51.256;7.152;2023-04-16T13:01:26;17.42;;;12.45;;
19543;SDS011;9917;51.256;7.152;2023-04-16T13:03:52;15.95;;;11.63;;
19543;SDS011;9917;51.256;7.152;2023-04-16T13:06:18;16.75;;;11.68;;
19543;SDS011;9917;51.256;7.152;2023-04-16T13:08:44;16.33;;;10.95;;
19543;SDS011;9917;51.256;7.152;2023-04-16T13:11:10;16.95;;;11.20;;
19543;SDS011;9917;51.256;7.152;2023-04-16T13:13:37;17.90;;;11.93;;
19543;SDS011;9917;51.256;7.152;2023-04-16T13:16:03;16.45;;;11.18;;
19543;SDS011;9917;51.256;7.152;2023-04-16T13:18:29;15.82;;;11.18;;
19543;SDS011;9917;51.256;7.152;2023-04-16T13:20:55;17.30;;;11.68;;
19543;SDS011;9917;51.256;7.152;2023-04-16T13:23:21;18.15;;;12.10;;
19543;SDS011;9917;51.256;7.152;2023-04-16T13:25:46;20.85;;;11.95;;
19543;SDS011;9917;51.256;7.152;2023-04-16T13:28:12;16.58;;;11.10;;
19543;SDS011;9917;51.256;7.152;2023-04-16T13:30:39;16.73;;;11.00;;
19543;SDS011;9917;51.256;7.152;2023-04-16T13:33:05;13.00;;;9.13;;
19543;SDS011;9917;51.256;7.152;2023-04-16T13:35:31;13.18;;;8.80;;
19543;SDS011;9917;51.256;7.152;2023-04-16T13:37:57;14.18;;;10.38;;
19543;SDS011;9917;51.256;7.152;2023-04-16T13:40:23;16.65;;;11.20;;
19543;SDS011;9917;51.256;7.152;2023-04-16T13:42:51;14.10;;;8.65;;
19543;SDS011;9917;51.256;7.152;2023-04-16T13:45:16;16.50;;;11.00;;
19543;SDS011;9917;51.256;7.152;2023-04-16T13:47:44;14.15;;;10.57;;
19543;SDS011;9917;51.256;7.152;2023-04-16T13:50:09;14.93;;;10.68;;
19543;SDS011;9917;51.256;7.152;2023-04-16T13:52:35;13.63;;;10.43;;
19543;SDS011;9917;51.256;7.152;2023-04-16T13:55:02;13.93;;;10.77;;
19543;SDS011;9917;51.256;7.152;2023-04-16T13:57:28;14.32;;;9.80;;
19543;SDS011;9917;51.256;7.152;2023-04-16T13:59:54;15.25;;;10.85;;
19543;SDS011;9917;51.256;7.152;2023-04-16T14:02:20;19.58;;;11.68;;
19543;SDS011;9917;51.256;7.152;2023-04-16T14:04:48;17.05;;;10.18;;
19543;SDS011;9917;51.256;7.152;2023-04-16T14:07:13;17.92;;;11.75;;
19543;SDS011;9917;51.256;7.152;2023-04-16T14:09:39;17.83;;;12.32;;
19543;SDS011;9917;51.256;7.152;2023-04-16T14:12:05;18.05;;;12.43;;
19543;SDS011;9917;51.256;7.152;2023-04-16T14:14:31;18.92;;;12.23;;
19543;SDS011;9917;51.256;7.152;2023-04-16T14:16:57;16.95;;;11.75;;
19543;SDS011;9917;51.256;7.152;2023-04-16T14:19:23;18.33;;;12.30;;
19543;SDS011;9917;51.256;7.152;2023-04-16T14:21:50;18.23;;;11.43;;
19543;SDS011;9917;51.256;7.152;2023-04-16T14:24:16;17.58;;;12.13;;
19543;SDS011;9917;51.256;7.152;2023-04-16T14:26:42;16.92;;;11.23;;
19543;SDS011;9917;51.256;7.152;2023-04-16T14:29:07;16.02;;;11.70;;
19543;SDS011;9917;51.256;7.152;2023-04-16T14:31:33;17.88;;;11.27;;
19543;SDS011;9917;51.256;7.152;2023-04-16T14:33:59;18.15;;;11.98;;
19543;SDS011;9917;51.256;7.152;2023-04-16T14:36:25;19.60;;;13.02;;